sensor_id;sensor_type;location;lat;lon;timestamp;temperature;humidity
51595;DHT22;37677;53.254;6.594;2022-09-09T00:02:10;15.50;5.40
51595;DHT22;37677;53.254;6.594;2022-09-09T00:04:41;15.50;5.10
51595;DHT22;37677;53.254;6.594;2022-09-09T00:15:02;15.30;7.00
51595;DHT22;37677;53.254;6.594;2022-09-09T00:17:36;15.90;8.00
51595;DHT22;37677;53.254;6.594;2022-09-09T00:20:12;15.30;8.50
51595;DHT22;37677;53.254;6.594;2022-09-09T00:22:42;15.30;9.70
51595;DHT22;37677;53.254;6.594;2022-09-09T00:25:23;15.30;9.10
51595;DHT22;37677;53.254;6.594;2022-09-09T00:27:50;15.30;9.20
51595;DHT22;37677;53.254;6.594;2022-09-09T00:30:20;15.30;9.00
51595;DHT22;37677;53.254;6.594;2022-09-09T00:32:50;15.30;9.10
51595;DHT22;37677;53.254;6.594;2022-09-09T00:37:53;15.20;8.70
51595;DHT22;37677;53.254;6.594;2022-09-09T00:43:26;15.20;8.20
51595;DHT22;37677;53.254;6.594;2022-09-09T00:51:43;15.10;8.70
51595;DHT22;37677;53.254;6.594;2022-09-09T01:02:18;15.10;8.60
51595;DHT22;37677;53.254;6.594;2022-09-09T01:04:47;15.10;8.10
51595;DHT22;37677;53.254;6.594;2022-09-09T01:07:18;15.10;7.80
51595;DHT22;37677;53.254;6.594;2022-09-09T01:09:57;15.00;7.60
51595;DHT22;37677;53.254;6.594;2022-09-09T01:12:42;15.00;7.60
51595;DHT22;37677;53.254;6.594;2022-09-09T01:15:19;15.00;7.80
51595;DHT22;37677;53.254;6.594;2022-09-09T01:18:08;15.00;7.80
51595;DHT22;37677;53.254;6.594;2022-09-09T01:20:55;15.00;7.80
51595;DHT22;37677;53.254;6.594;2022-09-09T01:28:40;14.90;6.50
51595;DHT22;37677;53.254;6.594;2022-09-09T01:31:09;14.90;6.00
51595;DHT22;37677;53.254;6.594;2022-09-09T01:33:36;14.90;5.80
51595;DHT22;37677;53.254;6.594;2022-09-09T01:38:28;14.90;5.40
51595;DHT22;37677;53.254;6.594;2022-09-09T01:40:55;14.90;5.40
51595;DHT22;37677;53.254;6.594;2022-09-09T01:43:22;14.90;4.90
51595;DHT22;37677;53.254;6.594;2022-09-09T01:45:52;14.80;4.40
51595;DHT22;37677;53.254;6.594;2022-09-09T01:48:19;14.80;4.10
51595;DHT22;37677;53.254;6.594;2022-09-09T01:50:46;14.80;3.90
51595;DHT22;37677;53.254;6.594;2022-09-09T01:53:13;14.90;3.60
51595;DHT22;37677;53.254;6.594;2022-09-09T01:55:40;14.90;3.40
51595;DHT22;37677;53.254;6.594;2022-09-09T01:58:29;14.80;3.10
51595;DHT22;37677;53.254;6.594;2022-09-09T02:01:06;14.80;3.00
51595;DHT22;37677;53.254;6.594;2022-09-09T02:03:36;14.80;2.90
51595;DHT22;37677;53.254;6.594;2022-09-09T02:08:46;14.80;2.70
51595;DHT22;37677;53.254;6.594;2022-09-09T02:11:13;14.70;2.80
51595;DHT22;37677;53.254;6.594;2022-09-09T02:13:40;14.70;2.70
51595;DHT22;37677;53.254;6.594;2022-09-09T02:16:07;15.60;3.20
51595;DHT22;37677;53.254;6.594;2022-09-09T02:18:49;15.00;2.90
51595;DHT22;37677;53.254;6.594;2022-09-09T02:21:17;14.80;4.20
51595;DHT22;37677;53.254;6.594;2022-09-09T02:23:44;15.20;4.90
51595;DHT22;37677;53.254;6.594;2022-09-09T02:26:12;14.80;4.80
51595;DHT22;37677;53.254;6.594;2022-09-09T02:28:45;14.80;5.10
51595;DHT22;37677;53.254;6.594;2022-09-09T02:31:12;14.80;5.30
51595;DHT22;37677;53.254;6.594;2022-09-09T02:33:42;14.80;5.40
51595;DHT22;37677;53.254;6.594;2022-09-09T02:36:11;14.80;5.50
51595;DHT22;37677;53.254;6.594;2022-09-09T02:38:46;14.80;5.60
51595;DHT22;37677;53.254;6.594;2022-09-09T02:41:18;14.80;5.60
51595;DHT22;37677;53.254;6.594;2022-09-09T02:43:47;14.80;5.20
51595;DHT22;37677;53.254;6.594;2022-09-09T02:46:27;14.80;5.30
51595;DHT22;37677;53.254;6.594;2022-09-09T02:49:08;14.80;5.00
51595;DHT22;37677;53.254;6.594;2022-09-09T02:52:00;15.20;5.80
51595;DHT22;37677;53.254;6.594;2022-09-09T02:54:31;14.80;6.90
51595;DHT22;37677;53.254;6.594;2022-09-09T02:57:08;14.80;7.10
51595;DHT22;37677;53.254;6.594;2022-09-09T02:59:36;14.80;8.40
51595;DHT22;37677;53.254;6.594;2022-09-09T03:02:02;14.80;7.80
51595;DHT22;37677;53.254;6.594;2022-09-09T03:04:28;14.70;8.50
51595;DHT22;37677;53.254;6.594;2022-09-09T03:06:55;14.90;8.50
51595;DHT22;37677;53.254;6.594;2022-09-09T03:09:21;14.80;8.90
51595;DHT22;37677;53.254;6.594;2022-09-09T03:11:47;14.80;8.80
51595;DHT22;37677;53.254;6.594;2022-09-09T03:14:12;14.90;9.70
51595;DHT22;37677;53.254;6.594;2022-09-09T03:16:38;14.90;9.60
51595;DHT22;37677;53.254;6.594;2022-09-09T03:19:04;14.90;9.80
51595;DHT22;37677;53.254;6.594;2022-09-09T03:21:29;15.10;9.70
51595;DHT22;37677;53.254;6.594;2022-09-09T03:23:55;14.90;9.30
51595;DHT22;37677;53.254;6.594;2022-09-09T03:26:21;15.40;9.30
51595;DHT22;37677;53.254;6.594;2022-09-09T03:28:47;14.90;8.90
51595;DHT22;37677;53.254;6.594;2022-09-09T03:31:12;14.90;8.80
51595;DHT22;37677;53.254;6.594;2022-09-09T03:33:38;14.90;8.70
51595;DHT22;37677;53.254;6.594;2022-09-09T03:36:05;15.20;8.50
51595;DHT22;37677;53.254;6.594;2022-09-09T03:38:31;14.90;8.00
51595;DHT22;37677;53.254;6.594;2022-09-09T03:40:57;15.00;7.80
51595;DHT22;37677;53.254;6.594;2022-09-09T03:43:27;15.00;7.50
51595;DHT22;37677;53.254;6.594;2022-09-09T03:45:53;15.00;7.30
51595;DHT22;37677;53.254;6.594;2022-09-09T03:48:22;14.70;6.80
51595;DHT22;37677;53.254;6.594;2022-09-09T03:50:50;15.00;6.70
51595;DHT22;37677;53.254;6.594;2022-09-09T03:53:19;15.00;6.90
51595;DHT22;37677;53.254;6.594;2022-09-09T03:55:45;15.00;7.10
51595;DHT22;37677;53.254;6.594;2022-09-09T03:58:13;15.00;8.30
51595;DHT22;37677;53.254;6.594;2022-09-09T04:00:39;15.50;7.80
51595;DHT22;37677;53.254;6.594;2022-09-09T04:03:09;15.00;7.60
51595;DHT22;37677;53.254;6.594;2022-09-09T04:05:35;14.90;8.00
51595;DHT22;37677;53.254;6.594;2022-09-09T04:08:05;15.00;7.70
51595;DHT22;37677;53.254;6.594;2022-09-09T04:10:31;15.00;7.40
51595;DHT22;37677;53.254;6.594;2022-09-09T04:12:57;15.30;7.40
51595;DHT22;37677;53.254;6.594;2022-09-09T04:15:22;15.10;7.30
51595;DHT22;37677;53.254;6.594;2022-09-09T04:17:48;15.10;7.40
51595;DHT22;37677;53.254;6.594;2022-09-09T04:20:15;15.50;7.80
51595;DHT22;37677;53.254;6.594;2022-09-09T04:22:40;15.10;7.10
51595;DHT22;37677;53.254;6.594;2022-09-09T04:25:06;15.10;7.10
51595;DHT22;37677;53.254;6.594;2022-09-09T04:27:32;15.10;7.30
51595;DHT22;37677;53.254;6.594;2022-09-09T04:29:58;15.20;6.90
51595;DHT22;37677;53.254;6.594;2022-09-09T04:32:24;15.40;6.70
51595;DHT22;37677;53.254;6.594;2022-09-09T04:34:52;15.20;6.10
51595;DHT22;37677;53.254;6.594;2022-09-09T04:37:18;15.20;6.00
51595;DHT22;37677;53.254;6.594;2022-09-09T04:39:43;15.50;5.80
51595;DHT22;37677;53.254;6.594;2022-09-09T04:42:10;15.20;5.30
51595;DHT22;37677;53.254;6.594;2022-09-09T04:44:36;15.20;5.10
51595;DHT22;37677;53.254;6.594;2022-09-09T04:47:02;15.30;4.70
51595;DHT22;37677;53.254;6.594;2022-09-09T04:49:28;15.30;4.40
51595;DHT22;37677;53.254;6.594;2022-09-09T04:51:53;15.30;4.20
51595;DHT22;37677;53.254;6.594;2022-09-09T04:54:19;15.30;4.60
51595;DHT22;37677;53.254;6.594;2022-09-09T04:56:44;15.50;3.90
51595;DHT22;37677;53.254;6.594;2022-09-09T04:59:10;15.20;3.60
51595;DHT22;37677;53.254;6.594;2022-09-09T05:01:36;15.30;3.40
51595;DHT22;37677;53.254;6.594;2022-09-09T05:04:02;15.40;3.30
51595;DHT22;37677;53.254;6.594;2022-09-09T05:06:28;15.50;3.30
51595;DHT22;37677;53.254;6.594;2022-09-09T05:08:56;15.20;3.20
51595;DHT22;37677;53.254;6.594;2022-09-09T05:11:28;15.20;3.20
51595;DHT22;37677;53.254;6.594;2022-09-09T05:13:55;15.20;3.10
51595;DHT22;37677;53.254;6.594;2022-09-09T05:16:21;15.20;3.10
51595;DHT22;37677;53.254;6.594;2022-09-09T05:18:48;15.10;3.70
51595;DHT22;37677;53.254;6.594;2022-09-09T05:21:17;15.20;4.10
51595;DHT22;37677;53.254;6.594;2022-09-09T05:23:44;15.20;4.50
51595;DHT22;37677;53.254;6.594;2022-09-09T05:26:17;15.20;5.10
51595;DHT22;37677;53.254;6.594;2022-09-09T05:28:44;15.10;5.70
51595;DHT22;37677;53.254;6.594;2022-09-09T05:31:13;15.10;6.50
51595;DHT22;37677;53.254;6.594;2022-09-09T05:33:43;15.10;7.70
51595;DHT22;37677;53.254;6.594;2022-09-09T05:36:13;15.10;7.40
51595;DHT22;37677;53.254;6.594;2022-09-09T05:38:39;15.10;7.50
51595;DHT22;37677;53.254;6.594;2022-09-09T05:41:06;15.10;8.00
51595;DHT22;37677;53.254;6.594;2022-09-09T05:43:32;15.10;7.90
51595;DHT22;37677;53.254;6.594;2022-09-09T05:46:07;15.50;7.90
51595;DHT22;37677;53.254;6.594;2022-09-09T05:48:38;15.00;7.70
51595;DHT22;37677;53.254;6.594;2022-09-09T05:51:06;15.10;7.50
51595;DHT22;37677;53.254;6.594;2022-09-09T05:53:34;15.10;7.80
51595;DHT22;37677;53.254;6.594;2022-09-09T05:56:13;14.80;8.60
51595;DHT22;37677;53.254;6.594;2022-09-09T05:58:40;15.10;8.80
51595;DHT22;37677;53.254;6.594;2022-09-09T06:01:08;15.00;8.70
51595;DHT22;37677;53.254;6.594;2022-09-09T06:03:35;15.10;8.60
51595;DHT22;37677;53.254;6.594;2022-09-09T06:06:03;15.10;8.50
51595;DHT22;37677;53.254;6.594;2022-09-09T06:08:32;15.20;8.60
51595;DHT22;37677;53.254;6.594;2022-09-09T06:11:08;15.00;8.50
51595;DHT22;37677;53.254;6.594;2022-09-09T06:13:35;15.10;9.00
51595;DHT22;37677;53.254;6.594;2022-09-09T06:16:02;15.50;9.10
51595;DHT22;37677;53.254;6.594;2022-09-09T06:18:28;15.10;9.00
51595;DHT22;37677;53.254;6.594;2022-09-09T06:20:59;15.00;8.80
51595;DHT22;37677;53.254;6.594;2022-09-09T06:23:30;15.20;9.00
51595;DHT22;37677;53.254;6.594;2022-09-09T06:26:26;15.20;9.20
51595;DHT22;37677;53.254;6.594;2022-09-09T06:28:54;15.20;8.60
51595;DHT22;37677;53.254;6.594;2022-09-09T06:31:22;15.40;8.00
51595;DHT22;37677;53.254;6.594;2022-09-09T06:33:52;15.20;6.60
51595;DHT22;37677;53.254;6.594;2022-09-09T06:36:23;15.20;5.50
51595;DHT22;37677;53.254;6.594;2022-09-09T06:38:50;15.90;5.60
51595;DHT22;37677;53.254;6.594;2022-09-09T06:41:18;15.20;4.30
51595;DHT22;37677;53.254;6.594;2022-09-09T06:43:44;15.30;3.70
51595;DHT22;37677;53.254;6.594;2022-09-09T06:46:16;15.30;2.80
51595;DHT22;37677;53.254;6.594;2022-09-09T06:48:43;15.40;2.60
51595;DHT22;37677;53.254;6.594;2022-09-09T06:51:21;15.30;1.60
51595;DHT22;37677;53.254;6.594;2022-09-09T06:53:49;15.40;1.00
51595;DHT22;37677;53.254;6.594;2022-09-09T06:56:27;15.50;1.00
51595;DHT22;37677;53.254;6.594;2022-09-09T06:58:55;15.50;1.00
51595;DHT22;37677;53.254;6.594;2022-09-09T07:01:23;15.60;1.00
51595;DHT22;37677;53.254;6.594;2022-09-09T07:03:52;15.60;1.00
51595;DHT22;37677;53.254;6.594;2022-09-09T07:06:23;15.60;1.00
51595;DHT22;37677;53.254;6.594;2022-09-09T07:08:53;15.70;1.00
51595;DHT22;37677;53.254;6.594;2022-09-09T07:11:21;15.80;1.00
51595;DHT22;37677;53.254;6.594;2022-09-09T07:13:47;16.90;1.00
51595;DHT22;37677;53.254;6.594;2022-09-09T07:16:16;15.80;1.00
51595;DHT22;37677;53.254;6.594;2022-09-09T07:18:43;15.90;1.00
51595;DHT22;37677;53.254;6.594;2022-09-09T07:21:10;15.80;1.00
51595;DHT22;37677;53.254;6.594;2022-09-09T07:23:38;16.10;1.00
51595;DHT22;37677;53.254;6.594;2022-09-09T07:26:13;16.00;1.00
51595;DHT22;37677;53.254;6.594;2022-09-09T07:28:39;16.00;1.00
51595;DHT22;37677;53.254;6.594;2022-09-09T07:31:06;16.00;1.00
51595;DHT22;37677;53.254;6.594;2022-09-09T07:33:34;16.00;1.00
51595;DHT22;37677;53.254;6.594;2022-09-09T07:38:38;16.00;1.00
51595;DHT22;37677;53.254;6.594;2022-09-09T07:41:10;16.00;1.00
51595;DHT22;37677;53.254;6.594;2022-09-09T07:43:38;16.00;1.00
51595;DHT22;37677;53.254;6.594;2022-09-09T07:46:05;16.10;1.00
51595;DHT22;37677;53.254;6.594;2022-09-09T07:48:31;16.30;1.00
51595;DHT22;37677;53.254;6.594;2022-09-09T07:51:14;16.10;1.00
51595;DHT22;37677;53.254;6.594;2022-09-09T07:53:47;16.20;1.00
51595;DHT22;37677;53.254;6.594;2022-09-09T07:56:15;16.20;1.00
51595;DHT22;37677;53.254;6.594;2022-09-09T07:58:50;16.30;1.00
51595;DHT22;37677;53.254;6.594;2022-09-09T08:01:18;16.30;1.00
51595;DHT22;37677;53.254;6.594;2022-09-09T08:03:46;16.40;1.00
51595;DHT22;37677;53.254;6.594;2022-09-09T08:06:12;16.50;1.00
51595;DHT22;37677;53.254;6.594;2022-09-09T08:08:39;16.50;1.00
51595;DHT22;37677;53.254;6.594;2022-09-09T08:11:13;16.60;1.00
51595;DHT22;37677;53.254;6.594;2022-09-09T08:13:40;16.70;1.00
51595;DHT22;37677;53.254;6.594;2022-09-09T08:16:08;16.70;1.00
51595;DHT22;37677;53.254;6.594;2022-09-09T08:18:35;16.80;1.00
51595;DHT22;37677;53.254;6.594;2022-09-09T08:21:09;16.90;1.00
51595;DHT22;37677;53.254;6.594;2022-09-09T08:23:38;16.80;1.00
51595;DHT22;37677;53.254;6.594;2022-09-09T08:26:28;16.90;1.00
51595;DHT22;37677;53.254;6.594;2022-09-09T08:28:56;16.90;1.00
51595;DHT22;37677;53.254;6.594;2022-09-09T08:31:28;17.10;1.00
51595;DHT22;37677;53.254;6.594;2022-09-09T08:33:55;17.10;1.00
51595;DHT22;37677;53.254;6.594;2022-09-09T08:36:23;17.20;1.00
51595;DHT22;37677;53.254;6.594;2022-09-09T08:38:50;17.20;1.00
51595;DHT22;37677;53.254;6.594;2022-09-09T08:50:22;17.80;1.00
51595;DHT22;37677;53.254;6.594;2022-09-09T08:55:39;18.00;1.00
51595;DHT22;37677;53.254;6.594;2022-09-09T08:58:13;18.10;1.00
51595;DHT22;37677;53.254;6.594;2022-09-09T09:00:54;18.20;1.00
51595;DHT22;37677;53.254;6.594;2022-09-09T09:11:41;18.60;99.90
51595;DHT22;37677;53.254;6.594;2022-09-09T09:14:10;18.60;99.90
51595;DHT22;37677;53.254;6.594;2022-09-09T09:19:15;18.50;99.90
51595;DHT22;37677;53.254;6.594;2022-09-09T09:22:00;18.40;99.90
51595;DHT22;37677;53.254;6.594;2022-09-09T09:27:32;18.10;99.90
51595;DHT22;37677;53.254;6.594;2022-09-09T09:30:02;18.20;1.00
51595;DHT22;37677;53.254;6.594;2022-09-09T09:32:31;18.10;1.00
51595;DHT22;37677;53.254;6.594;2022-09-09T09:34:59;18.10;1.00
51595;DHT22;37677;53.254;6.594;2022-09-09T09:37:32;18.10;1.00
51595;DHT22;37677;53.254;6.594;2022-09-09T09:40:15;18.10;1.00
51595;DHT22;37677;53.254;6.594;2022-09-09T09:45:20;18.20;1.00
51595;DHT22;37677;53.254;6.594;2022-09-09T09:48:04;18.20;99.90
51595;DHT22;37677;53.254;6.594;2022-09-09T09:50:31;18.20;99.90
51595;DHT22;37677;53.254;6.594;2022-09-09T09:53:00;18.30;99.90
51595;DHT22;37677;53.254;6.594;2022-09-09T09:55:26;18.40;1.00
51595;DHT22;37677;53.254;6.594;2022-09-09T09:57:54;18.40;99.90
51595;DHT22;37677;53.254;6.594;2022-09-09T10:00:25;18.50;99.90
51595;DHT22;37677;53.254;6.594;2022-09-09T10:02:51;18.50;99.90
51595;DHT22;37677;53.254;6.594;2022-09-09T10:05:23;18.50;99.90
51595;DHT22;37677;53.254;6.594;2022-09-09T10:08:10;18.70;1.00
51595;DHT22;37677;53.254;6.594;2022-09-09T10:14:28;18.90;99.90
51595;DHT22;37677;53.254;6.594;2022-09-09T10:19:14;18.90;10.20
51595;DHT22;37677;53.254;6.594;2022-09-09T10:22:04;19.00;1.00
51595;DHT22;37677;53.254;6.594;2022-09-09T10:30:06;19.10;99.90
51595;DHT22;37677;53.254;6.594;2022-09-09T10:38:13;19.00;99.90
51595;DHT22;37677;53.254;6.594;2022-09-09T10:43:50;18.90;99.90
51595;DHT22;37677;53.254;6.594;2022-09-09T10:49:09;18.80;99.90
51595;DHT22;37677;53.254;6.594;2022-09-09T11:00:10;20.60;99.90
51595;DHT22;37677;53.254;6.594;2022-09-09T11:02:40;20.40;1.00
51595;DHT22;37677;53.254;6.594;2022-09-09T11:05:18;19.90;99.90
51595;DHT22;37677;53.254;6.594;2022-09-09T11:07:50;19.70;99.90
51595;DHT22;37677;53.254;6.594;2022-09-09T11:10:33;19.90;1.00
51595;DHT22;37677;53.254;6.594;2022-09-09T11:13:03;20.30;99.90
51595;DHT22;37677;53.254;6.594;2022-09-09T11:18:11;21.20;99.90
51595;DHT22;37677;53.254;6.594;2022-09-09T11:20:39;21.20;37.30
51595;DHT22;37677;53.254;6.594;2022-09-09T11:23:17;20.80;1.00
51595;DHT22;37677;53.254;6.594;2022-09-09T11:25:55;20.80;68.70
51595;DHT22;37677;53.254;6.594;2022-09-09T11:34:51;21.90;99.90
51595;DHT22;37677;53.254;6.594;2022-09-09T11:40:19;22.20;99.90
51595;DHT22;37677;53.254;6.594;2022-09-09T11:42:45;21.80;81.30
51595;DHT22;37677;53.254;6.594;2022-09-09T11:45:31;21.60;1.00
51595;DHT22;37677;53.254;6.594;2022-09-09T11:48:03;21.60;1.00
51595;DHT22;37677;53.254;6.594;2022-09-09T11:50:34;21.40;1.00
51595;DHT22;37677;53.254;6.594;2022-09-09T11:53:15;21.40;1.00
51595;DHT22;37677;53.254;6.594;2022-09-09T11:55:41;21.40;1.00
51595;DHT22;37677;53.254;6.594;2022-09-09T12:00:38;21.20;1.00
51595;DHT22;37677;53.254;6.594;2022-09-09T12:08:54;20.60;1.00
51595;DHT22;37677;53.254;6.594;2022-09-09T12:11:27;20.60;1.00
51595;DHT22;37677;53.254;6.594;2022-09-09T12:13:55;20.80;40.90
51595;DHT22;37677;53.254;6.594;2022-09-09T12:16:36;20.70;1.00
51595;DHT22;37677;53.254;6.594;2022-09-09T12:19:24;20.60;1.00
51595;DHT22;37677;53.254;6.594;2022-09-09T12:22:07;20.50;1.00
51595;DHT22;37677;53.254;6.594;2022-09-09T12:24:36;20.50;26.30
51595;DHT22;37677;53.254;6.594;2022-09-09T12:27:44;20.60;41.10
51595;DHT22;37677;53.254;6.594;2022-09-09T12:30:14;20.50;1.00
51595;DHT22;37677;53.254;6.594;2022-09-09T12:32:41;20.50;1.00
51595;DHT22;37677;53.254;6.594;2022-09-09T12:35:22;20.60;7.10
51595;DHT22;37677;53.254;6.594;2022-09-09T12:37:53;20.80;1.00
51595;DHT22;37677;53.254;6.594;2022-09-09T12:40:29;20.70;19.30
51595;DHT22;37677;53.254;6.594;2022-09-09T12:42:55;20.80;4.50
51595;DHT22;37677;53.254;6.594;2022-09-09T12:45:26;20.80;1.00
51595;DHT22;37677;53.254;6.594;2022-09-09T12:47:59;20.70;1.00
51595;DHT22;37677;53.254;6.594;2022-09-09T12:50:31;20.50;1.00
51595;DHT22;37677;53.254;6.594;2022-09-09T12:52:59;20.30;99.90
51595;DHT22;37677;53.254;6.594;2022-09-09T12:55:32;20.30;1.00
51595;DHT22;37677;53.254;6.594;2022-09-09T12:57:59;20.20;1.00
51595;DHT22;37677;53.254;6.594;2022-09-09T13:00:26;20.30;1.00
51595;DHT22;37677;53.254;6.594;2022-09-09T13:03:00;20.40;1.00
51595;DHT22;37677;53.254;6.594;2022-09-09T13:05:37;20.50;1.00
51595;DHT22;37677;53.254;6.594;2022-09-09T13:08:10;20.60;1.00
51595;DHT22;37677;53.254;6.594;2022-09-09T13:13:19;20.70;1.00
51595;DHT22;37677;53.254;6.594;2022-09-09T13:15:54;20.60;99.90
51595;DHT22;37677;53.254;6.594;2022-09-09T13:18:30;20.60;99.90
51595;DHT22;37677;53.254;6.594;2022-09-09T13:20:57;20.70;99.90
51595;DHT22;37677;53.254;6.594;2022-09-09T13:23:32;20.60;99.90
51595;DHT22;37677;53.254;6.594;2022-09-09T13:26:05;20.60;99.90
51595;DHT22;37677;53.254;6.594;2022-09-09T13:28:33;20.60;99.90
51595;DHT22;37677;53.254;6.594;2022-09-09T13:31:04;20.50;99.90
51595;DHT22;37677;53.254;6.594;2022-09-09T13:33:39;20.40;99.90
51595;DHT22;37677;53.254;6.594;2022-09-09T13:36:11;20.30;99.90
51595;DHT22;37677;53.254;6.594;2022-09-09T13:38:53;20.40;99.90
51595;DHT22;37677;53.254;6.594;2022-09-09T13:41:23;20.40;99.90
51595;DHT22;37677;53.254;6.594;2022-09-09T13:43:50;20.40;99.90
51595;DHT22;37677;53.254;6.594;2022-09-09T13:51:36;20.50;99.90
51595;DHT22;37677;53.254;6.594;2022-09-09T13:54:08;20.40;99.90
51595;DHT22;37677;53.254;6.594;2022-09-09T13:56:35;20.40;99.90
51595;DHT22;37677;53.254;6.594;2022-09-09T13:59:04;20.30;99.90
51595;DHT22;37677;53.254;6.594;2022-09-09T14:01:30;20.20;99.90
51595;DHT22;37677;53.254;6.594;2022-09-09T14:03:56;20.20;99.90
51595;DHT22;37677;53.254;6.594;2022-09-09T14:06:22;20.20;99.90
51595;DHT22;37677;53.254;6.594;2022-09-09T14:08:52;20.20;99.90
51595;DHT22;37677;53.254;6.594;2022-09-09T14:11:18;20.20;1.00
51595;DHT22;37677;53.254;6.594;2022-09-09T14:13:44;20.30;1.00
51595;DHT22;37677;53.254;6.594;2022-09-09T14:16:09;20.40;1.00
51595;DHT22;37677;53.254;6.594;2022-09-09T14:18:35;20.40;1.00
51595;DHT22;37677;53.254;6.594;2022-09-09T14:21:03;20.40;99.90
51595;DHT22;37677;53.254;6.594;2022-09-09T14:23:28;20.40;99.90
51595;DHT22;37677;53.254;6.594;2022-09-09T14:25:55;20.30;99.90
51595;DHT22;37677;53.254;6.594;2022-09-09T14:28:21;20.10;99.90
51595;DHT22;37677;53.254;6.594;2022-09-09T14:33:15;20.00;22.20
51595;DHT22;37677;53.254;6.594;2022-09-09T14:35:41;20.00;99.90
51595;DHT22;37677;53.254;6.594;2022-09-09T14:38:08;20.00;99.90
51595;DHT22;37677;53.254;6.594;2022-09-09T14:40:35;20.10;99.90
51595;DHT22;37677;53.254;6.594;2022-09-09T14:43:02;20.00;99.90
51595;DHT22;37677;53.254;6.594;2022-09-09T14:45:28;20.00;99.90
51595;DHT22;37677;53.254;6.594;2022-09-09T14:47:54;19.90;99.90
51595;DHT22;37677;53.254;6.594;2022-09-09T14:50:21;19.80;99.90
51595;DHT22;37677;53.254;6.594;2022-09-09T14:52:47;19.80;99.90
51595;DHT22;37677;53.254;6.594;2022-09-09T14:55:13;20.00;99.90
51595;DHT22;37677;53.254;6.594;2022-09-09T14:57:39;19.60;99.90
51595;DHT22;37677;53.254;6.594;2022-09-09T15:00:06;19.50;1.00
51595;DHT22;37677;53.254;6.594;2022-09-09T15:02:33;19.40;99.90
51595;DHT22;37677;53.254;6.594;2022-09-09T15:04:58;19.20;99.90
51595;DHT22;37677;53.254;6.594;2022-09-09T15:07:25;19.00;99.90
51595;DHT22;37677;53.254;6.594;2022-09-09T15:09:52;18.70;1.00
51595;DHT22;37677;53.254;6.594;2022-09-09T15:12:18;18.50;1.00
51595;DHT22;37677;53.254;6.594;2022-09-09T15:14:44;18.40;89.60
51595;DHT22;37677;53.254;6.594;2022-09-09T15:17:11;18.30;1.00
51595;DHT22;37677;53.254;6.594;2022-09-09T15:19:37;18.30;94.10
51595;DHT22;37677;53.254;6.594;2022-09-09T15:22:04;18.30;99.90
51595;DHT22;37677;53.254;6.594;2022-09-09T15:24:33;18.30;99.90
51595;DHT22;37677;53.254;6.594;2022-09-09T15:26:59;18.40;99.90
51595;DHT22;37677;53.254;6.594;2022-09-09T15:29:37;18.50;99.90
51595;DHT22;37677;53.254;6.594;2022-09-09T15:32:04;18.50;99.90
51595;DHT22;37677;53.254;6.594;2022-09-09T15:34:30;18.60;99.90
51595;DHT22;37677;53.254;6.594;2022-09-09T15:36:55;18.50;99.90
51595;DHT22;37677;53.254;6.594;2022-09-09T15:39:21;18.70;99.90
51595;DHT22;37677;53.254;6.594;2022-09-09T15:41:47;18.50;99.90
51595;DHT22;37677;53.254;6.594;2022-09-09T15:44:14;18.50;99.90
51595;DHT22;37677;53.254;6.594;2022-09-09T15:46:49;18.50;99.90
51595;DHT22;37677;53.254;6.594;2022-09-09T15:49:20;18.50;99.90
51595;DHT22;37677;53.254;6.594;2022-09-09T15:51:58;18.50;99.90
51595;DHT22;37677;53.254;6.594;2022-09-09T15:54:25;18.60;99.90
51595;DHT22;37677;53.254;6.594;2022-09-09T15:56:53;18.60;99.90
51595;DHT22;37677;53.254;6.594;2022-09-09T15:59:24;18.90;99.90
51595;DHT22;37677;53.254;6.594;2022-09-09T16:01:50;18.60;99.90
51595;DHT22;37677;53.254;6.594;2022-09-09T16:04:17;18.50;99.90
51595;DHT22;37677;53.254;6.594;2022-09-09T16:06:57;18.50;99.90
51595;DHT22;37677;53.254;6.594;2022-09-09T16:09:27;18.50;99.90
51595;DHT22;37677;53.254;6.594;2022-09-09T16:11:57;18.50;99.90
51595;DHT22;37677;53.254;6.594;2022-09-09T16:14:26;18.60;99.90
51595;DHT22;37677;53.254;6.594;2022-09-09T16:16:52;18.60;99.90
51595;DHT22;37677;53.254;6.594;2022-09-09T16:19:19;18.60;99.90
51595;DHT22;37677;53.254;6.594;2022-09-09T16:21:47;18.60;99.90
51595;DHT22;37677;53.254;6.594;2022-09-09T16:24:15;18.60;99.90
51595;DHT22;37677;53.254;6.594;2022-09-09T16:26:44;18.50;99.90
51595;DHT22;37677;53.254;6.594;2022-09-09T16:29:12;18.50;99.90
51595;DHT22;37677;53.254;6.594;2022-09-09T16:31:38;18.50;99.90
51595;DHT22;37677;53.254;6.594;2022-09-09T16:34:04;18.40;99.90
51595;DHT22;37677;53.254;6.594;2022-09-09T16:36:33;18.40;99.90
51595;DHT22;37677;53.254;6.594;2022-09-09T16:39:03;18.40;99.90
51595;DHT22;37677;53.254;6.594;2022-09-09T16:41:30;18.40;99.90
51595;DHT22;37677;53.254;6.594;2022-09-09T16:43:58;18.40;99.90
51595;DHT22;37677;53.254;6.594;2022-09-09T16:46:26;18.30;99.90
51595;DHT22;37677;53.254;6.594;2022-09-09T16:48:53;18.40;99.90
51595;DHT22;37677;53.254;6.594;2022-09-09T16:53:46;18.30;99.90
51595;DHT22;37677;53.254;6.594;2022-09-09T16:56:16;18.30;99.90
51595;DHT22;37677;53.254;6.594;2022-09-09T16:58:42;18.30;99.90
51595;DHT22;37677;53.254;6.594;2022-09-09T17:01:09;18.20;99.90
51595;DHT22;37677;53.254;6.594;2022-09-09T17:03:36;18.20;99.90
51595;DHT22;37677;53.254;6.594;2022-09-09T17:06:03;18.20;99.90
51595;DHT22;37677;53.254;6.594;2022-09-09T17:08:33;18.10;99.90
51595;DHT22;37677;53.254;6.594;2022-09-09T17:10:59;18.00;99.90
51595;DHT22;37677;53.254;6.594;2022-09-09T17:13:25;18.10;99.90
51595;DHT22;37677;53.254;6.594;2022-09-09T17:15:50;18.00;99.90
51595;DHT22;37677;53.254;6.594;2022-09-09T17:18:16;17.90;1.00
51595;DHT22;37677;53.254;6.594;2022-09-09T17:20:42;17.90;99.90
51595;DHT22;37677;53.254;6.594;2022-09-09T17:23:10;17.90;99.90
51595;DHT22;37677;53.254;6.594;2022-09-09T17:25:37;18.10;1.00
51595;DHT22;37677;53.254;6.594;2022-09-09T17:28:04;17.90;1.00
51595;DHT22;37677;53.254;6.594;2022-09-09T17:30:36;17.90;1.00
51595;DHT22;37677;53.254;6.594;2022-09-09T17:33:03;17.80;1.00
51595;DHT22;37677;53.254;6.594;2022-09-09T17:35:29;17.80;1.00
51595;DHT22;37677;53.254;6.594;2022-09-09T17:37:55;18.60;1.00
51595;DHT22;37677;53.254;6.594;2022-09-09T17:40:22;17.70;1.00
51595;DHT22;37677;53.254;6.594;2022-09-09T17:42:47;17.60;1.00
51595;DHT22;37677;53.254;6.594;2022-09-09T17:45:14;17.70;1.00
51595;DHT22;37677;53.254;6.594;2022-09-09T17:47:40;17.60;1.00
51595;DHT22;37677;53.254;6.594;2022-09-09T17:50:09;17.60;1.00
51595;DHT22;37677;53.254;6.594;2022-09-09T17:52:36;17.60;1.00
51595;DHT22;37677;53.254;6.594;2022-09-09T17:55:04;17.60;1.00
51595;DHT22;37677;53.254;6.594;2022-09-09T17:57:29;17.60;1.00
51595;DHT22;37677;53.254;6.594;2022-09-09T17:59:55;17.50;1.00
51595;DHT22;37677;53.254;6.594;2022-09-09T18:02:21;17.60;1.00
51595;DHT22;37677;53.254;6.594;2022-09-09T18:04:47;17.60;1.00
51595;DHT22;37677;53.254;6.594;2022-09-09T18:07:12;17.60;1.00
51595;DHT22;37677;53.254;6.594;2022-09-09T18:09:38;17.50;1.00
51595;DHT22;37677;53.254;6.594;2022-09-09T18:12:05;17.60;1.00